createdAt,value
2022-11-19T00:01:29.297Z,99.90
2022-11-19T00:03:56.751Z,99.90
2022-11-19T00:06:26.120Z,99.90
2022-11-19T00:08:53.856Z,99.90
2022-11-19T00:11:23.691Z,99.90
2022-11-19T00:13:50.953Z,99.90
2022-11-19T00:16:20.179Z,99.90
2022-11-19T00:18:47.498Z,99.90
2022-11-19T00:21:14.473Z,99.90
2022-11-19T00:23:44.317Z,99.90
2022-11-19T00:26:15.255Z,99.90
2022-11-19T00:28:43.898Z,99.90
2022-11-19T00:31:13.135Z,99.90
2022-11-19T00:33:44.922Z,99.90
2022-11-19T00:36:15.324Z,99.90
2022-11-19T00:38:43.418Z,99.90
2022-11-19T00:41:10.426Z,99.90
2022-11-19T00:43:38.148Z,99.90
2022-11-19T00:46:06.150Z,99.90
2022-11-19T00:48:33.490Z,99.90
2022-11-19T00:51:00.617Z,99.90
2022-11-19T00:53:28.070Z,99.90
2022-11-19T00:55:55.088Z,99.90
2022-11-19T00:58:24.845Z,99.90
2022-11-19T01:00:51.980Z,99.90
2022-11-19T01:03:19.490Z,99.90
2022-11-19T01:05:48.704Z,99.90
2022-11-19T01:08:19.340Z,99.90
2022-11-19T01:10:46.399Z,99.90
2022-11-19T01:13:18.187Z,99.90
2022-11-19T01:15:49.028Z,99.90
2022-11-19T01:18:19.467Z,99.90
2022-11-19T01:20:47.406Z,99.90
2022-11-19T01:23:17.367Z,99.90
2022-11-19T01:25:44.375Z,99.90
2022-11-19T01:28:11.835Z,99.90
2022-11-19T01:30:44.963Z,99.90
2022-11-19T01:33:12.504Z,99.90
2022-11-19T01:35:39.485Z,99.90
2022-11-19T01:38:09.526Z,99.90
2022-11-19T01:40:46.279Z,99.90
2022-11-19T01:43:16.379Z,99.90
2022-11-19T01:45:49.929Z,99.90
2022-11-19T01:48:34.581Z,99.90
2022-11-19T01:51:12.513Z,99.90
2022-11-19T01:53:40.580Z,99.90
2022-11-19T01:56:09.126Z,99.90
2022-11-19T01:58:44.148Z,99.90
2022-11-19T02:01:11.741Z,99.90
2022-11-19T02:03:42.625Z,99.90
2022-11-19T02:06:12.779Z,99.90
2022-11-19T02:08:42.148Z,99.90
2022-11-19T02:11:09.104Z,99.90
2022-11-19T02:13:52.589Z,99.90
2022-11-19T02:16:36.393Z,99.90
2022-11-19T02:19:25.603Z,99.90
2022-11-19T02:22:01.861Z,99.90
2022-11-19T02:24:54.704Z,99.90
2022-11-19T02:27:59.175Z,99.90
2022-11-19T02:30:33.815Z,99.90
2022-11-19T02:33:35.929Z,99.90
2022-11-19T02:36:18.246Z,99.90
2022-11-19T02:38:59.175Z,99.90
2022-11-19T02:41:46.945Z,99.90
2022-11-19T02:44:21.180Z,99.90
2022-11-19T02:46:53.136Z,99.90
2022-11-19T02:49:26.277Z,99.90
2022-11-19T02:51:54.355Z,99.90
2022-11-19T02:54:21.469Z,99.90
2022-11-19T02:56:54.251Z,99.90
2022-11-19T02:59:44.236Z,99.90
2022-11-19T03:02:14.866Z,99.90
2022-11-19T03:04:42.312Z,99.90
2022-11-19T03:07:18.366Z,99.90
2022-11-19T03:10:02.973Z,99.90
2022-11-19T03:12:45.268Z,99.90
2022-11-19T03:15:41.950Z,99.90
2022-11-19T03:18:32.897Z,99.90
2022-11-19T03:21:19.257Z,99.90
2022-11-19T03:24:01.385Z,99.90
2022-11-19T03:26:41.516Z,99.90
2022-11-19T03:29:12.664Z,99.90
2022-11-19T03:31:46.897Z,99.90
2022-11-19T03:34:19.508Z,99.90
2022-11-19T03:36:49.571Z,99.90
2022-11-19T03:39:19.510Z,99.90
2022-11-19T03:41:51.521Z,99.90
2022-11-19T03:44:25.626Z,99.90
2022-11-19T03:46:59.508Z,99.90
2022-11-19T03:49:34.602Z,99.90
2022-11-19T03:52:13.819Z,99.90
2022-11-19T03:54:42.394Z,99.90
2022-11-19T03:57:12.443Z,99.90
2022-11-19T03:59:39.900Z,99.90
2022-11-19T04:02:09.609Z,99.90
2022-11-19T04:04:37.988Z,99.90
2022-11-19T04:07:10.335Z,99.90
2022-11-19T04:09:38.850Z,99.90
2022-11-19T04:12:07.756Z,99.90
2022-11-19T04:14:35.195Z,99.90
2022-11-19T04:17:04.848Z,99.90
2022-11-19T04:19:32.136Z,99.90
2022-11-19T04:21:59.250Z,99.90
2022-11-19T04:24:26.736Z,99.90
2022-11-19T04:26:53.764Z,99.90
2022-11-19T04:29:21.432Z,99.90
2022-11-19T04:31:51.047Z,99.90
2022-11-19T04:34:18.389Z,99.90
2022-11-19T04:36:47.846Z,99.90
2022-11-19T04:39:15.375Z,99.90
2022-11-19T04:41:42.467Z,99.90
2022-11-19T04:44:09.919Z,99.90
2022-11-19T04:46:37.053Z,99.90
2022-11-19T04:49:04.464Z,99.90
2022-11-19T04:51:31.779Z,99.90
2022-11-19T04:54:01.578Z,99.90
2022-11-19T04:56:31.035Z,99.90
2022-11-19T04:58:58.576Z,99.90
2022-11-19T05:01:28.311Z,99.90
2022-11-19T05:03:55.732Z,99.90
2022-11-19T05:06:25.035Z,99.90
2022-11-19T05:08:52.510Z,99.90
2022-11-19T05:11:19.611Z,99.90
2022-11-19T05:13:47.214Z,99.90
2022-11-19T05:16:14.410Z,99.90
2022-11-19T05:18:41.877Z,99.90
2022-11-19T05:21:09.199Z,99.90
2022-11-19T05:23:36.848Z,99.90
2022-11-19T05:26:06.489Z,99.90
2022-11-19T05:28:39.923Z,99.90
2022-11-19T05:31:08.782Z,99.90
2022-11-19T05:33:36.237Z,99.90
2022-11-19T05:36:06.288Z,99.90
2022-11-19T05:38:35.939Z,99.90
2022-11-19T05:41:03.002Z,99.90
2022-11-19T05:43:30.561Z,99.90
2022-11-19T05:46:01.124Z,99.90
2022-11-19T05:48:29.102Z,99.90
2022-11-19T05:50:56.352Z,99.90
2022-11-19T05:53:23.768Z,99.90
2022-11-19T05:55:53.040Z,99.90
2022-11-19T05:58:20.347Z,99.90
2022-11-19T06:00:47.967Z,99.90
2022-11-19T06:03:17.790Z,99.90
2022-11-19T06:05:44.971Z,99.90
2022-11-19T06:08:12.321Z,99.90
2022-11-19T06:10:44.281Z,99.90
2022-11-19T06:13:11.738Z,99.90
2022-11-19T06:15:41.055Z,99.90
2022-11-19T06:18:10.845Z,99.90
2022-11-19T06:20:37.920Z,99.90
2022-11-19T06:23:05.309Z,99.90
2022-11-19T06:25:32.476Z,99.90
2022-11-19T06:27:59.914Z,99.90
2022-11-19T06:30:27.040Z,99.90
2022-11-19T06:32:54.439Z,99.90
2022-11-19T06:35:21.568Z,99.90
2022-11-19T06:37:51.327Z,99.90
2022-11-19T06:40:18.413Z,99.90
2022-11-19T06:42:51.180Z,99.90
2022-11-19T06:45:18.788Z,99.90
2022-11-19T06:47:48.240Z,99.90
2022-11-19T06:50:15.268Z,99.90
2022-11-19T06:52:47.815Z,99.90
2022-11-19T06:55:15.096Z,99.90
2022-11-19T06:57:42.620Z,99.50
2022-11-19T07:00:10.866Z,96.70
2022-11-19T07:02:38.146Z,93.50
2022-11-19T07:05:05.593Z,91.60
2022-11-19T07:07:34.186Z,87.70
2022-11-19T07:10:01.565Z,82.40
2022-11-19T07:12:29.015Z,77.00
2022-11-19T07:15:01.119Z,72.20
2022-11-19T07:17:31.416Z,67.70
2022-11-19T07:19:59.145Z,63.50
2022-11-19T07:22:29.038Z,60.60
2022-11-19T07:24:56.015Z,58.40
2022-11-19T07:27:23.548Z,55.50
2022-11-19T07:29:50.528Z,53.70
2022-11-19T07:32:17.888Z,51.90
2022-11-19T07:34:45.267Z,50.00
2022-11-19T07:37:12.614Z,49.00
2022-11-19T07:39:39.632Z,48.20
2022-11-19T07:42:08.156Z,46.70
2022-11-19T07:44:35.150Z,45.30
2022-11-19T07:47:02.526Z,44.70
2022-11-19T07:49:32.190Z,43.40
2022-11-19T07:52:04.143Z,42.30
2022-11-19T07:54:31.429Z,41.40
2022-11-19T07:57:01.145Z,40.30
2022-11-19T07:59:30.419Z,39.60
2022-11-19T08:01:58.092Z,39.00
2022-11-19T08:04:28.350Z,38.40
2022-11-19T08:06:56.160Z,37.70
2022-11-19T08:09:27.953Z,37.20
2022-11-19T08:11:55.268Z,36.40
2022-11-19T08:14:22.465Z,35.80
2022-11-19T08:16:50.116Z,35.80
2022-11-19T08:19:17.848Z,35.40
2022-11-19T08:21:46.928Z,34.90
2022-11-19T08:24:15.868Z,34.60
2022-11-19T08:26:43.567Z,34.40
2022-11-19T08:29:16.629Z,34.50
2022-11-19T08:31:47.940Z,34.00
2022-11-19T08:34:16.244Z,33.60
2022-11-19T08:36:43.918Z,33.10
2022-11-19T08:39:11.591Z,33.00
2022-11-19T08:41:38.870Z,32.60
2022-11-19T08:44:08.502Z,32.30
2022-11-19T08:46:37.321Z,32.70
2022-11-19T08:49:04.617Z,31.50
2022-11-19T08:51:32.296Z,31.60
2022-11-19T08:53:59.509Z,31.20
2022-11-19T08:56:26.984Z,31.50
2022-11-19T08:58:58.516Z,31.50
2022-11-19T09:01:31.450Z,30.80
2022-11-19T09:03:58.958Z,30.40
2022-11-19T09:06:26.289Z,30.60
2022-11-19T09:08:53.489Z,30.40
2022-11-19T09:11:21.571Z,30.30
2022-11-19T09:13:50.916Z,30.20
2022-11-19T09:16:22.949Z,30.00
2022-11-19T09:18:52.638Z,30.30
2022-11-19T09:21:22.496Z,30.30
2022-11-19T09:23:54.217Z,30.20
2022-11-19T09:26:21.608Z,30.30
2022-11-19T09:28:50.819Z,29.70
2022-11-19T09:31:23.660Z,29.50
2022-11-19T09:33:52.633Z,29.70
2022-11-19T09:36:20.352Z,29.10
2022-11-19T09:38:49.855Z,29.10
2022-11-19T09:41:40.920Z,28.90
2022-11-19T09:44:17.013Z,28.90
2022-11-19T09:46:54.885Z,28.90
2022-11-19T09:49:36.569Z,29.10
2022-11-19T09:52:07.609Z,29.00
2022-11-19T09:54:35.705Z,28.80
2022-11-19T09:57:12.018Z,29.00
2022-11-19T09:59:40.862Z,29.10
2022-11-19T10:02:20.697Z,29.70
2022-11-19T10:04:50.315Z,30.30
2022-11-19T10:07:20.893Z,30.10
2022-11-19T10:10:05.383Z,29.90
2022-11-19T10:13:07.615Z,29.60
2022-11-19T10:15:46.922Z,29.60
2022-11-19T10:18:40.078Z,28.80
2022-11-19T10:21:27.568Z,28.70
2022-11-19T10:24:22.112Z,28.60
2022-11-19T10:27:05.700Z,28.80
2022-11-19T10:29:39.880Z,28.90
2022-11-19T10:32:26.341Z,29.20
2022-11-19T10:35:02.240Z,30.60
2022-11-19T10:37:38.917Z,33.20
2022-11-19T10:40:16.644Z,36.60
2022-11-19T10:42:52.269Z,38.90
2022-11-19T10:45:21.837Z,41.10
2022-11-19T10:48:09.394Z,40.20
2022-11-19T10:50:42.122Z,36.70
2022-11-19T10:53:41.801Z,33.50
2022-11-19T10:56:18.377Z,32.20
2022-11-19T10:58:58.135Z,31.40
2022-11-19T11:01:38.010Z,30.40
2022-11-19T11:04:13.320Z,30.00
2022-11-19T11:07:01.055Z,29.40
2022-11-19T11:09:32.136Z,29.50
2022-11-19T11:12:04.875Z,31.00
2022-11-19T11:14:34.446Z,32.90
2022-11-19T11:17:05.424Z,35.50
2022-11-19T11:19:33.482Z,37.30
2022-11-19T11:22:03.422Z,39.30
2022-11-19T11:24:37.944Z,41.20
2022-11-19T11:27:35.658Z,42.30
2022-11-19T11:30:25.808Z,44.70
2022-11-19T11:32:53.530Z,46.00
2022-11-19T11:35:37.372Z,47.20
2022-11-19T11:38:05.754Z,48.80
2022-11-19T11:40:35.443Z,48.90
2022-11-19T11:43:05.048Z,49.80
2022-11-19T11:45:35.014Z,50.20
2022-11-19T11:48:17.840Z,52.10
2022-11-19T11:50:48.366Z,54.40
2022-11-19T11:53:27.167Z,55.10
2022-11-19T11:55:59.644Z,56.30
2022-11-19T11:58:26.990Z,57.40
2022-11-19T12:01:16.037Z,57.60
2022-11-19T12:03:55.946Z,58.30
2022-11-19T12:06:26.451Z,59.00
2022-11-19T12:08:53.794Z,59.40
2022-11-19T12:11:57.905Z,59.80
2022-11-19T12:14:51.706Z,60.00
2022-11-19T12:17:30.881Z,59.90
2022-11-19T12:20:16.571Z,60.30
2022-11-19T12:23:01.224Z,61.30
2022-11-19T12:25:34.613Z,62.20
2022-11-19T12:28:26.022Z,63.30
2022-11-19T12:31:05.394Z,63.20
2022-11-19T12:33:47.512Z,64.10
2022-11-19T12:36:36.160Z,64.30
2022-11-19T12:39:29.574Z,64.70
2022-11-19T12:42:08.347Z,65.40
2022-11-19T12:44:50.031Z,65.10
2022-11-19T12:47:26.581Z,65.10
2022-11-19T12:50:05.572Z,64.90
2022-11-19T12:52:35.634Z,68.50
2022-11-19T12:55:30.506Z,67.50
2022-11-19T12:58:32.476Z,67.90
2022-11-19T13:01:03.889Z,68.90
2022-11-19T13:03:46.763Z,68.30
2022-11-19T13:06:27.366Z,67.70
2022-11-19T13:09:02.157Z,68.10
2022-11-19T13:11:42.994Z,68.70
2022-11-19T13:14:28.622Z,68.70
2022-11-19T13:16:59.855Z,68.90
2022-11-19T13:19:31.378Z,69.30
2022-11-19T13:22:19.349Z,69.80
2022-11-19T13:24:53.098Z,70.20
2022-11-19T13:27:26.882Z,70.50
2022-11-19T13:30:05.254Z,70.70
2022-11-19T13:32:38.670Z,71.30
2022-11-19T13:35:09.238Z,71.20
2022-11-19T13:37:47.000Z,70.80
2022-11-19T13:40:21.297Z,70.50
2022-11-19T13:42:58.934Z,70.90
2022-11-19T13:45:39.616Z,71.60
2022-11-19T13:48:21.410Z,71.90
2022-11-19T13:50:52.020Z,72.60
2022-11-19T13:53:45.101Z,73.20
2022-11-19T13:56:18.269Z,74.00
2022-11-19T13:58:54.070Z,75.10
2022-11-19T14:01:49.579Z,76.00
2022-11-19T14:04:35.690Z,77.00
2022-11-19T14:07:16.033Z,77.70
2022-11-19T14:10:20.537Z,78.70
2022-11-19T14:13:09.299Z,80.30
2022-11-19T14:15:54.953Z,81.10
2022-11-19T14:18:22.445Z,82.50
2022-11-19T14:20:51.741Z,84.00
2022-11-19T14:23:47.741Z,86.50
2022-11-19T14:26:40.807Z,89.50
2022-11-19T14:29:26.203Z,91.10
2022-11-19T14:32:02.487Z,92.20
2022-11-19T14:34:41.691Z,92.60
2022-11-19T14:37:19.255Z,93.70
2022-11-19T14:39:52.126Z,94.50
2022-11-19T14:42:23.517Z,95.20
2022-11-19T14:45:02.912Z,96.20
2022-11-19T14:47:34.294Z,97.60
2022-11-19T14:50:24.097Z,97.90
2022-11-19T14:52:55.931Z,98.60
2022-11-19T14:55:33.920Z,98.70
2022-11-19T14:58:07.453Z,99.60
2022-11-19T15:00:37.904Z,99.90
2022-11-19T15:03:13.662Z,99.90
2022-11-19T15:05:46.241Z,99.90
2022-11-19T15:08:19.531Z,99.90
2022-11-19T15:10:46.652Z,99.90
2022-11-19T15:13:28.300Z,99.90
2022-11-19T15:15:58.474Z,99.90
2022-11-19T15:18:43.153Z,99.90
2022-11-19T15:21:37.724Z,99.90
2022-11-19T15:27:01.894Z,99.90
2022-11-19T15:29:59.895Z,99.90
2022-11-19T15:32:58.407Z,99.90
2022-11-19T15:35:44.279Z,99.90
2022-11-19T15:38:19.926Z,99.90
2022-11-19T15:41:04.185Z,99.90
2022-11-19T15:43:39.896Z,99.90
2022-11-19T15:46:50.432Z,99.90
2022-11-19T15:49:23.141Z,99.90
2022-11-19T15:52:18.528Z,99.90
2022-11-19T15:54:45.748Z,99.90
2022-11-19T15:58:00.370Z,99.90
2022-11-19T16:00:27.652Z,99.90
2022-11-19T16:02:55.515Z,99.90
2022-11-19T16:05:22.579Z,99.90
2022-11-19T16:07:51.832Z,99.90
2022-11-19T16:10:30.689Z,99.90
2022-11-19T16:13:04.404Z,99.90
2022-11-19T16:15:31.489Z,99.90
2022-11-19T16:17:58.789Z,99.90
2022-11-19T16:20:26.151Z,99.90
2022-11-19T16:23:10.477Z,99.90
2022-11-19T16:25:42.119Z,99.90
2022-11-19T16:28:23.772Z,99.90
2022-11-19T16:30:54.356Z,99.90
2022-11-19T16:33:27.217Z,99.90
2022-11-19T16:36:10.970Z,99.90
2022-11-19T16:38:40.870Z,99.90
2022-11-19T16:41:10.493Z,99.90
2022-11-19T16:43:38.527Z,99.90
2022-11-19T16:46:06.549Z,99.90
2022-11-19T16:48:54.106Z,99.90
2022-11-19T16:51:53.928Z,99.90
2022-11-19T16:54:52.594Z,99.90
2022-11-19T16:57:25.301Z,99.90
2022-11-19T16:59:59.513Z,99.90
2022-11-19T17:02:40.662Z,99.90
2022-11-19T17:05:16.696Z,99.90
2022-11-19T17:07:48.762Z,99.90
2022-11-19T17:10:18.721Z,99.90
2022-11-19T17:12:55.815Z,99.90
2022-11-19T17:15:38.381Z,99.90
2022-11-19T17:18:32.722Z,99.90
2022-11-19T17:21:06.910Z,99.90
2022-11-19T17:23:45.892Z,99.90
2022-11-19T17:26:18.467Z,99.90
2022-11-19T17:28:49.943Z,99.90
2022-11-19T17:31:26.787Z,99.90
2022-11-19T17:34:04.714Z,99.90
2022-11-19T17:36:33.099Z,99.90
2022-11-19T17:39:00.488Z,99.90
2022-11-19T17:41:29.178Z,99.90
2022-11-19T17:43:56.515Z,99.90
2022-11-19T17:46:29.259Z,99.90
2022-11-19T17:48:56.774Z,99.90
2022-11-19T17:51:25.467Z,99.90
2022-11-19T17:53:53.432Z,99.90
2022-11-19T17:56:30.243Z,99.90
2022-11-19T17:58:57.714Z,99.90
2022-11-19T18:01:24.972Z,99.90
2022-11-19T18:03:52.492Z,99.90
2022-11-19T18:06:19.647Z,99.90
2022-11-19T18:08:47.210Z,99.90
2022-11-19T18:11:22.560Z,99.90
2022-11-19T18:13:54.637Z,99.90
2022-11-19T18:16:24.495Z,99.90
2022-11-19T18:18:51.994Z,99.90
2022-11-19T18:21:22.793Z,99.90
2022-11-19T18:23:51.942Z,99.90
2022-11-19T18:26:21.075Z,99.90
2022-11-19T18:28:49.257Z,99.90
2022-11-19T18:31:24.229Z,99.90
2022-11-19T18:33:55.068Z,99.90
2022-11-19T18:36:25.149Z,99.90
2022-11-19T18:38:53.269Z,99.90
2022-11-19T18:41:25.136Z,99.90
2022-11-19T18:43:52.615Z,99.90
2022-11-19T18:46:20.025Z,99.90
2022-11-19T18:48:47.471Z,99.90
2022-11-19T18:51:14.688Z,99.90
2022-11-19T18:53:42.302Z,99.90
2022-11-19T18:56:15.101Z,99.90
2022-11-19T18:58:43.010Z,99.90
2022-11-19T19:01:12.480Z,99.90
2022-11-19T19:03:39.880Z,99.90
2022-11-19T19:06:08.878Z,99.90
2022-11-19T19:08:36.730Z,99.90
2022-11-19T19:11:06.937Z,99.90
2022-11-19T19:13:39.188Z,99.90
2022-11-19T19:16:06.420Z,99.90
2022-11-19T19:18:33.691Z,99.90
2022-11-19T19:21:01.058Z,99.90
2022-11-19T19:23:31.691Z,99.90
2022-11-19T19:25:58.817Z,99.90
2022-11-19T19:28:28.751Z,99.90
2022-11-19T19:30:59.259Z,99.90
2022-11-19T19:33:27.208Z,99.90
2022-11-19T19:35:56.734Z,99.90
2022-11-19T19:38:26.236Z,99.90
2022-11-19T19:41:02.273Z,99.90
2022-11-19T19:43:30.463Z,99.90
2022-11-19T19:46:03.761Z,99.90
2022-11-19T19:48:35.009Z,99.90
2022-11-19T19:51:04.488Z,99.90
2022-11-19T19:53:36.449Z,99.90
2022-11-19T19:56:30.479Z,99.90
2022-11-19T19:59:01.462Z,99.90
2022-11-19T20:01:31.011Z,99.90
2022-11-19T20:04:02.595Z,99.90
2022-11-19T20:06:30.047Z,99.90
2022-11-19T20:08:57.388Z,99.90
2022-11-19T20:11:25.847Z,99.90
2022-11-19T20:13:55.356Z,99.90
2022-11-19T20:16:32.974Z,99.90
2022-11-19T20:19:01.672Z,99.90
2022-11-19T20:21:31.341Z,99.90
2022-11-19T20:23:58.692Z,99.90
2022-11-19T20:26:29.093Z,99.90
2022-11-19T20:29:06.025Z,99.90
2022-11-19T20:31:34.308Z,99.90
2022-11-19T20:34:04.387Z,99.90
2022-11-19T20:36:35.641Z,99.90
2022-11-19T20:39:04.251Z,99.90
2022-11-19T20:41:31.453Z,99.90
2022-11-19T20:44:02.566Z,99.90
2022-11-19T20:46:29.759Z,99.90
2022-11-19T20:48:57.355Z,99.90
2022-11-19T20:51:26.866Z,99.90
2022-11-19T20:53:54.396Z,99.90
2022-11-19T20:56:23.630Z,99.90
2022-11-19T20:58:53.436Z,99.90
2022-11-19T21:01:20.802Z,99.90
2022-11-19T21:03:48.240Z,99.90
2022-11-19T21:06:20.171Z,99.90
2022-11-19T21:08:47.665Z,99.90
2022-11-19T21:11:17.372Z,99.90
2022-11-19T21:13:46.942Z,99.90
2022-11-19T21:16:25.597Z,99.90
2022-11-19T21:18:53.261Z,99.90
2022-11-19T21:21:23.398Z,99.90
2022-11-19T21:23:51.336Z,99.90
2022-11-19T21:26:25.689Z,99.90
2022-11-19T21:28:57.637Z,99.90
2022-11-19T21:31:36.999Z,99.90
2022-11-19T21:34:10.133Z,99.90
2022-11-19T21:36:41.202Z,99.90
2022-11-19T21:39:10.690Z,99.90
2022-11-19T21:41:38.205Z,99.90
2022-11-19T21:44:06.729Z,99.90
2022-11-19T21:46:34.241Z,99.90
2022-11-19T21:49:04.849Z,99.90
2022-11-19T21:51:32.226Z,99.90
2022-11-19T21:54:02.372Z,99.90
2022-11-19T21:56:32.497Z,99.90
2022-11-19T21:59:04.574Z,99.90
2022-11-19T22:01:40.370Z,99.90
2022-11-19T22:04:10.648Z,99.90
2022-11-19T22:06:37.671Z,99.90
2022-11-19T22:09:05.323Z,99.90
2022-11-19T22:11:32.613Z,99.90
2022-11-19T22:14:06.432Z,99.90
2022-11-19T22:16:36.071Z,99.90
2022-11-19T22:19:06.859Z,99.90
2022-11-19T22:21:34.364Z,99.90
2022-11-19T22:24:04.593Z,99.90
2022-11-19T22:26:32.120Z,99.90
2022-11-19T22:28:59.546Z,99.90
2022-11-19T22:31:31.310Z,99.90
2022-11-19T22:34:03.129Z,99.90
2022-11-19T22:36:31.343Z,99.90
2022-11-19T22:38:59.013Z,99.90
2022-11-19T22:41:26.182Z,99.90
2022-11-19T22:43:58.446Z,99.90
2022-11-19T22:46:25.486Z,99.90
2022-11-19T22:48:52.779Z,99.90
2022-11-19T22:51:26.058Z,99.90
2022-11-19T22:53:54.703Z,99.90
2022-11-19T22:56:27.609Z,99.90
2022-11-19T22:58:58.172Z,99.90
2022-11-19T23:01:29.701Z,99.90
2022-11-19T23:04:01.008Z,99.90
2022-11-19T23:06:28.697Z,99.90
2022-11-19T23:08:58.565Z,99.90
2022-11-19T23:11:29.047Z,99.90
2022-11-19T23:13:56.535Z,99.90
2022-11-19T23:16:23.533Z,99.90
2022-11-19T23:18:52.674Z,99.90
2022-11-19T23:21:25.822Z,99.90
2022-11-19T23:23:53.781Z,99.90
2022-11-19T23:26:23.615Z,99.90
2022-11-19T23:28:51.993Z,99.90
2022-11-19T23:31:26.388Z,99.90
2022-11-19T23:33:58.741Z,99.90
2022-11-19T23:36:26.441Z,99.90
2022-11-19T23:38:53.869Z,99.90
2022-11-19T23:41:22.197Z,99.90
2022-11-19T23:43:49.936Z,99.90
2022-11-19T23:46:19.920Z,99.90
2022-11-19T23:48:49.020Z,99.90
2022-11-19T23:51:22.235Z,99.90
2022-11-19T23:53:50.252Z,99.90
2022-11-19T23:56:18.695Z,99.90
2022-11-19T23:58:46.393Z,99.90
